sensor_id;sensor_type;location;lat;lon;timestamp;P1;durP1;ratioP1;P2;durP2;ratioP2
22754;SDS011;11544;42.020;23.094;2024-03-07T00:01:08;16.55;;;10.73;;
22754;SDS011;11544;42.020;23.094;2024-03-07T00:03:35;19.90;;;12.57;;
22754;SDS011;11544;42.020;23.094;2024-03-07T00:06:01;15.40;;;10.40;;
22754;SDS011;11544;42.020;23.094;2024-03-07T00:08:30;16.90;;;9.10;;
22754;SDS011;11544;42.020;23.094;2024-03-07T00:10:57;14.63;;;10.07;;
22754;SDS011;11544;42.020;23.094;2024-03-07T00:13:24;16.00;;;10.45;;
22754;SDS011;11544;42.020;23.094;2024-03-07T00:15:51;17.35;;;11.05;;
22754;SDS011;11544;42.020;23.094;2024-03-07T00:18:18;22.45;;;12.85;;
22754;SDS011;11544;42.020;23.094;2024-03-07T00:20:44;19.95;;;13.43;;
22754;SDS011;11544;42.020;23.094;2024-03-07T00:23:11;21.55;;;14.35;;
22754;SDS011;11544;42.020;23.094;2024-03-07T00:25:38;17.08;;;11.80;;
22754;SDS011;11544;42.020;23.094;2024-03-07T00:28:05;17.45;;;11.57;;
22754;SDS011;11544;42.020;23.094;2024-03-07T00:30:33;27.40;;;14.95;;
22754;SDS011;11544;42.020;23.094;2024-03-07T00:33:00;26.80;;;16.17;;
22754;SDS011;11544;42.020;23.094;2024-03-07T00:35:27;28.02;;;16.88;;
22754;SDS011;11544;42.020;23.094;2024-03-07T00:37:54;26.92;;;17.52;;
22754;SDS011;11544;42.020;23.094;2024-03-07T00:40:21;22.58;;;15.35;;
22754;SDS011;11544;42.020;23.094;2024-03-07T00:42:48;22.55;;;15.57;;
22754;SDS011;11544;42.020;23.094;2024-03-07T00:45:15;25.45;;;15.35;;
22754;SDS011;11544;42.020;23.094;2024-03-07T00:47:42;24.33;;;16.15;;
22754;SDS011;11544;42.020;23.094;2024-03-07T00:50:09;25.73;;;15.98;;
22754;SDS011;11544;42.020;23.094;2024-03-07T00:52:36;23.02;;;15.02;;
22754;SDS011;11544;42.020;23.094;2024-03-07T00:55:05;23.25;;;15.68;;
22754;SDS011;11544;42.020;23.094;2024-03-07T00:57:35;23.77;;;15.38;;
22754;SDS011;11544;42.020;23.094;2024-03-07T01:00:02;26.50;;;16.45;;
22754;SDS011;11544;42.020;23.094;2024-03-07T01:02:30;25.85;;;16.30;;
22754;SDS011;11544;42.020;23.094;2024-03-07T01:04:56;25.15;;;16.08;;
22754;SDS011;11544;42.020;23.094;2024-03-07T01:07:23;26.17;;;16.67;;
22754;SDS011;11544;42.020;23.094;2024-03-07T01:09:50;25.88;;;15.82;;
22754;SDS011;11544;42.020;23.094;2024-03-07T01:12:17;22.42;;;14.13;;
22754;SDS011;11544;42.020;23.094;2024-03-07T01:14:46;22.73;;;14.70;;
22754;SDS011;11544;42.020;23.094;2024-03-07T01:17:13;25.95;;;15.65;;
22754;SDS011;11544;42.020;23.094;2024-03-07T01:19:40;21.88;;;16.02;;
22754;SDS011;11544;42.020;23.094;2024-03-07T01:22:07;25.13;;;15.50;;
22754;SDS011;11544;42.020;23.094;2024-03-07T01:24:35;22.65;;;14.57;;
22754;SDS011;11544;42.020;23.094;2024-03-07T01:27:02;19.13;;;13.70;;
22754;SDS011;11544;42.020;23.094;2024-03-07T01:29:29;15.80;;;10.77;;
22754;SDS011;11544;42.020;23.094;2024-03-07T01:31:56;16.15;;;10.90;;
22754;SDS011;11544;42.020;23.094;2024-03-07T01:34:23;16.83;;;10.82;;
22754;SDS011;11544;42.020;23.094;2024-03-07T01:36:50;15.48;;;11.35;;
22754;SDS011;11544;42.020;23.094;2024-03-07T01:39:18;16.50;;;10.10;;
22754;SDS011;11544;42.020;23.094;2024-03-07T01:41:44;16.40;;;10.38;;
22754;SDS011;11544;42.020;23.094;2024-03-07T01:44:12;16.67;;;10.57;;
22754;SDS011;11544;42.020;23.094;2024-03-07T01:46:39;16.13;;;10.10;;
22754;SDS011;11544;42.020;23.094;2024-03-07T01:49:08;14.90;;;10.05;;
22754;SDS011;11544;42.020;23.094;2024-03-07T01:51:36;13.50;;;10.48;;
22754;SDS011;11544;42.020;23.094;2024-03-07T01:54:05;15.77;;;9.90;;
22754;SDS011;11544;42.020;23.094;2024-03-07T01:56:35;14.70;;;9.40;;
22754;SDS011;11544;42.020;23.094;2024-03-07T01:59:03;15.00;;;9.88;;
22754;SDS011;11544;42.020;23.094;2024-03-07T02:01:31;15.18;;;8.85;;
22754;SDS011;11544;42.020;23.094;2024-03-07T02:03:59;10.68;;;7.60;;
22754;SDS011;11544;42.020;23.094;2024-03-07T02:06:26;10.68;;;6.72;;
22754;SDS011;11544;42.020;23.094;2024-03-07T02:08:54;9.25;;;5.93;;
22754;SDS011;11544;42.020;23.094;2024-03-07T02:11:21;8.80;;;5.20;;
22754;SDS011;11544;42.020;23.094;2024-03-07T02:13:50;8.35;;;5.10;;
22754;SDS011;11544;42.020;23.094;2024-03-07T02:16:17;7.10;;;4.72;;
22754;SDS011;11544;42.020;23.094;2024-03-07T02:18:44;8.98;;;5.30;;
22754;SDS011;11544;42.020;23.094;2024-03-07T02:21:12;6.75;;;4.75;;
22754;SDS011;11544;42.020;23.094;2024-03-07T02:23:40;7.50;;;5.38;;
22754;SDS011;11544;42.020;23.094;2024-03-07T02:26:07;5.38;;;4.15;;
22754;SDS011;11544;42.020;23.094;2024-03-07T02:28:34;8.15;;;5.70;;
22754;SDS011;11544;42.020;23.094;2024-03-07T02:31:01;7.22;;;4.60;;
22754;SDS011;11544;42.020;23.094;2024-03-07T02:33:28;8.55;;;6.18;;
22754;SDS011;11544;42.020;23.094;2024-03-07T02:35:59;8.00;;;5.68;;
22754;SDS011;11544;42.020;23.094;2024-03-07T02:38:26;7.88;;;5.40;;
22754;SDS011;11544;42.020;23.094;2024-03-07T02:40:53;8.07;;;5.47;;
22754;SDS011;11544;42.020;23.094;2024-03-07T02:43:20;6.05;;;5.15;;
22754;SDS011;11544;42.020;23.094;2024-03-07T02:45:47;8.68;;;5.80;;
22754;SDS011;11544;42.020;23.094;2024-03-07T02:48:14;7.20;;;5.80;;
22754;SDS011;11544;42.020;23.094;2024-03-07T02:50:41;10.48;;;6.15;;
22754;SDS011;11544;42.020;23.094;2024-03-07T02:53:08;7.30;;;5.85;;
22754;SDS011;11544;42.020;23.094;2024-03-07T02:55:35;8.30;;;6.07;;
22754;SDS011;11544;42.020;23.094;2024-03-07T02:58:02;8.50;;;5.75;;
22754;SDS011;11544;42.020;23.094;2024-03-07T03:00:28;7.28;;;5.78;;
22754;SDS011;11544;42.020;23.094;2024-03-07T03:02:58;8.82;;;5.70;;
22754;SDS011;11544;42.020;23.094;2024-03-07T03:05:25;8.20;;;6.07;;
22754;SDS011;11544;42.020;23.094;2024-03-07T03:07:52;9.93;;;7.50;;
22754;SDS011;11544;42.020;23.094;2024-03-07T03:10:23;10.02;;;6.78;;
22754;SDS011;11544;42.020;23.094;2024-03-07T03:12:59;8.38;;;6.72;;
22754;SDS011;11544;42.020;23.094;2024-03-07T03:15:28;9.02;;;6.72;;
22754;SDS011;11544;42.020;23.094;2024-03-07T03:17:56;7.78;;;6.10;;
22754;SDS011;11544;42.020;23.094;2024-03-07T03:20:27;9.55;;;6.68;;
22754;SDS011;11544;42.020;23.094;2024-03-07T03:23:05;7.55;;;6.07;;
22754;SDS011;11544;42.020;23.094;2024-03-07T03:25:45;8.90;;;6.25;;
22754;SDS011;11544;42.020;23.094;2024-03-07T03:28:15;7.53;;;6.10;;
22754;SDS011;11544;42.020;23.094;2024-03-07T03:30:43;9.77;;;5.53;;
22754;SDS011;11544;42.020;23.094;2024-03-07T03:33:10;9.05;;;5.95;;
22754;SDS011;11544;42.020;23.094;2024-03-07T03:35:38;9.93;;;7.20;;
22754;SDS011;11544;42.020;23.094;2024-03-07T03:38:06;8.70;;;6.45;;
22754;SDS011;11544;42.020;23.094;2024-03-07T03:40:34;7.13;;;5.85;;
22754;SDS011;11544;42.020;23.094;2024-03-07T03:43:01;6.38;;;5.25;;
22754;SDS011;11544;42.020;23.094;2024-03-07T03:45:29;8.85;;;6.05;;
22754;SDS011;11544;42.020;23.094;2024-03-07T03:47:57;8.50;;;5.95;;
22754;SDS011;11544;42.020;23.094;2024-03-07T03:50:24;9.57;;;5.85;;
22754;SDS011;11544;42.020;23.094;2024-03-07T03:52:51;9.77;;;5.40;;
22754;SDS011;11544;42.020;23.094;2024-03-07T03:55:18;8.00;;;5.55;;
22754;SDS011;11544;42.020;23.094;2024-03-07T03:57:47;9.88;;;5.90;;
22754;SDS011;11544;42.020;23.094;2024-03-07T04:00:16;8.90;;;6.63;;
22754;SDS011;11544;42.020;23.094;2024-03-07T04:02:44;10.25;;;6.63;;
22754;SDS011;11544;42.020;23.094;2024-03-07T04:05:16;10.10;;;6.50;;
22754;SDS011;11544;42.020;23.094;2024-03-07T04:07:44;10.00;;;7.18;;
22754;SDS011;11544;42.020;23.094;2024-03-07T04:10:12;10.88;;;7.30;;
22754;SDS011;11544;42.020;23.094;2024-03-07T04:12:41;10.00;;;7.63;;
22754;SDS011;11544;42.020;23.094;2024-03-07T04:15:09;11.65;;;7.20;;
22754;SDS011;11544;42.020;23.094;2024-03-07T04:17:38;11.50;;;7.05;;
22754;SDS011;11544;42.020;23.094;2024-03-07T04:20:05;10.07;;;7.45;;
22754;SDS011;11544;42.020;23.094;2024-03-07T04:22:34;9.68;;;7.72;;
22754;SDS011;11544;42.020;23.094;2024-03-07T04:25:01;10.85;;;7.53;;
22754;SDS011;11544;42.020;23.094;2024-03-07T04:27:28;10.52;;;7.70;;
22754;SDS011;11544;42.020;23.094;2024-03-07T04:29:55;10.52;;;8.00;;
22754;SDS011;11544;42.020;23.094;2024-03-07T04:32:22;10.65;;;7.97;;
22754;SDS011;11544;42.020;23.094;2024-03-07T04:34:50;10.77;;;8.75;;
22754;SDS011;11544;42.020;23.094;2024-03-07T04:37:16;11.98;;;8.32;;
22754;SDS011;11544;42.020;23.094;2024-03-07T04:39:43;11.68;;;7.68;;
22754;SDS011;11544;42.020;23.094;2024-03-07T04:42:10;10.90;;;7.78;;
22754;SDS011;11544;42.020;23.094;2024-03-07T04:44:37;9.57;;;7.03;;
22754;SDS011;11544;42.020;23.094;2024-03-07T04:47:05;10.77;;;8.07;;
22754;SDS011;11544;42.020;23.094;2024-03-07T04:49:33;9.35;;;7.32;;
22754;SDS011;11544;42.020;23.094;2024-03-07T04:52:01;8.32;;;6.60;;
22754;SDS011;11544;42.020;23.094;2024-03-07T04:54:29;17.70;;;7.15;;
22754;SDS011;11544;42.020;23.094;2024-03-07T04:56:58;9.50;;;6.75;;
22754;SDS011;11544;42.020;23.094;2024-03-07T04:59:25;9.60;;;7.07;;
22754;SDS011;11544;42.020;23.094;2024-03-07T05:01:52;7.82;;;6.85;;
22754;SDS011;11544;42.020;23.094;2024-03-07T05:04:19;7.60;;;6.47;;
22754;SDS011;11544;42.020;23.094;2024-03-07T05:06:46;11.02;;;7.78;;
22754;SDS011;11544;42.020;23.094;2024-03-07T05:09:15;10.15;;;8.05;;
22754;SDS011;11544;42.020;23.094;2024-03-07T05:11:55;9.68;;;7.85;;
22754;SDS011;11544;42.020;23.094;2024-03-07T05:14:22;12.15;;;8.20;;
22754;SDS011;11544;42.020;23.094;2024-03-07T05:16:49;10.73;;;8.27;;
22754;SDS011;11544;42.020;23.094;2024-03-07T05:19:32;11.50;;;8.02;;
22754;SDS011;11544;42.020;23.094;2024-03-07T05:21:59;14.02;;;8.93;;
22754;SDS011;11544;42.020;23.094;2024-03-07T05:24:27;14.18;;;8.82;;
22754;SDS011;11544;42.020;23.094;2024-03-07T05:26:54;11.98;;;8.95;;
22754;SDS011;11544;42.020;23.094;2024-03-07T05:29:21;10.70;;;8.35;;
22754;SDS011;11544;42.020;23.094;2024-03-07T05:31:48;9.85;;;7.30;;
22754;SDS011;11544;42.020;23.094;2024-03-07T05:34:16;12.68;;;7.53;;
22754;SDS011;11544;42.020;23.094;2024-03-07T05:36:46;11.70;;;4.68;;
22754;SDS011;11544;42.020;23.094;2024-03-07T05:39:13;7.28;;;4.60;;
22754;SDS011;11544;42.020;23.094;2024-03-07T05:41:42;4.47;;;2.83;;
22754;SDS011;11544;42.020;23.094;2024-03-07T05:44:11;2.70;;;1.50;;
22754;SDS011;11544;42.020;23.094;2024-03-07T05:46:39;3.58;;;2.00;;
22754;SDS011;11544;42.020;23.094;2024-03-07T05:49:13;5.07;;;2.85;;
22754;SDS011;11544;42.020;23.094;2024-03-07T05:51:41;6.53;;;3.67;;
22754;SDS011;11544;42.020;23.094;2024-03-07T05:54:08;4.40;;;3.05;;
22754;SDS011;11544;42.020;23.094;2024-03-07T05:56:35;9.27;;;5.05;;
22754;SDS011;11544;42.020;23.094;2024-03-07T05:59:02;8.43;;;5.63;;
22754;SDS011;11544;42.020;23.094;2024-03-07T06:01:39;6.88;;;4.70;;
22754;SDS011;11544;42.020;23.094;2024-03-07T06:04:06;6.78;;;4.70;;
22754;SDS011;11544;42.020;23.094;2024-03-07T06:06:34;4.18;;;2.80;;
22754;SDS011;11544;42.020;23.094;2024-03-07T06:09:03;2.13;;;1.60;;
22754;SDS011;11544;42.020;23.094;2024-03-07T06:11:37;2.33;;;1.50;;
22754;SDS011;11544;42.020;23.094;2024-03-07T06:14:05;3.65;;;1.90;;
22754;SDS011;11544;42.020;23.094;2024-03-07T06:16:36;3.63;;;2.72;;
22754;SDS011;11544;42.020;23.094;2024-03-07T06:19:05;5.97;;;3.55;;
22754;SDS011;11544;42.020;23.094;2024-03-07T06:21:38;4.88;;;2.92;;
22754;SDS011;11544;42.020;23.094;2024-03-07T06:24:07;2.75;;;1.75;;
22754;SDS011;11544;42.020;23.094;2024-03-07T06:26:37;2.05;;;1.48;;
22754;SDS011;11544;42.020;23.094;2024-03-07T06:29:08;4.95;;;1.52;;
22754;SDS011;11544;42.020;23.094;2024-03-07T06:31:38;2.15;;;1.50;;
22754;SDS011;11544;42.020;23.094;2024-03-07T06:34:06;3.55;;;1.70;;
22754;SDS011;11544;42.020;23.094;2024-03-07T06:36:35;2.92;;;1.50;;
22754;SDS011;11544;42.020;23.094;2024-03-07T06:39:02;3.80;;;2.60;;
22754;SDS011;11544;42.020;23.094;2024-03-07T06:41:34;3.55;;;2.28;;
22754;SDS011;11544;42.020;23.094;2024-03-07T06:44:01;5.13;;;3.15;;
22754;SDS011;11544;42.020;23.094;2024-03-07T06:46:29;8.68;;;3.20;;
22754;SDS011;11544;42.020;23.094;2024-03-07T06:48:58;5.15;;;3.10;;
22754;SDS011;11544;42.020;23.094;2024-03-07T06:51:25;4.90;;;3.35;;
22754;SDS011;11544;42.020;23.094;2024-03-07T06:53:52;5.50;;;3.90;;
22754;SDS011;11544;42.020;23.094;2024-03-07T06:56:19;5.40;;;3.63;;
22754;SDS011;11544;42.020;23.094;2024-03-07T06:58:46;6.15;;;3.20;;
22754;SDS011;11544;42.020;23.094;2024-03-07T07:01:13;5.25;;;3.00;;
22754;SDS011;11544;42.020;23.094;2024-03-07T07:03:42;6.20;;;3.60;;
22754;SDS011;11544;42.020;23.094;2024-03-07T07:06:10;6.65;;;3.00;;
22754;SDS011;11544;42.020;23.094;2024-03-07T07:08:38;4.38;;;2.53;;
22754;SDS011;11544;42.020;23.094;2024-03-07T07:11:05;3.63;;;2.35;;
22754;SDS011;11544;42.020;23.094;2024-03-07T07:13:32;4.20;;;2.60;;
22754;SDS011;11544;42.020;23.094;2024-03-07T07:15:59;1.95;;;1.60;;
22754;SDS011;11544;42.020;23.094;2024-03-07T07:18:28;3.13;;;2.33;;
22754;SDS011;11544;42.020;23.094;2024-03-07T07:20:55;6.50;;;2.90;;
22754;SDS011;11544;42.020;23.094;2024-03-07T07:23:23;10.35;;;5.20;;
22754;SDS011;11544;42.020;23.094;2024-03-07T07:25:50;9.40;;;4.22;;
22754;SDS011;11544;42.020;23.094;2024-03-07T07:28:17;9.23;;;4.07;;
22754;SDS011;11544;42.020;23.094;2024-03-07T07:30:44;6.63;;;3.85;;
22754;SDS011;11544;42.020;23.094;2024-03-07T07:33:12;8.52;;;3.55;;
22754;SDS011;11544;42.020;23.094;2024-03-07T07:35:40;6.97;;;3.50;;
22754;SDS011;11544;42.020;23.094;2024-03-07T07:38:07;5.72;;;3.05;;
22754;SDS011;11544;42.020;23.094;2024-03-07T07:40:37;7.20;;;3.17;;
22754;SDS011;11544;42.020;23.094;2024-03-07T07:43:04;6.22;;;3.03;;
22754;SDS011;11544;42.020;23.094;2024-03-07T07:45:31;6.65;;;3.60;;
22754;SDS011;11544;42.020;23.094;2024-03-07T07:48:02;5.72;;;3.47;;
22754;SDS011;11544;42.020;23.094;2024-03-07T07:50:30;8.70;;;4.75;;
22754;SDS011;11544;42.020;23.094;2024-03-07T07:52:59;10.50;;;6.53;;
22754;SDS011;11544;42.020;23.094;2024-03-07T07:55:26;12.50;;;6.50;;
22754;SDS011;11544;42.020;23.094;2024-03-07T07:57:55;11.20;;;5.88;;
22754;SDS011;11544;42.020;23.094;2024-03-07T08:00:26;11.02;;;4.93;;
22754;SDS011;11544;42.020;23.094;2024-03-07T08:02:59;8.77;;;5.15;;
22754;SDS011;11544;42.020;23.094;2024-03-07T08:05:28;7.55;;;4.80;;
22754;SDS011;11544;42.020;23.094;2024-03-07T08:08:01;7.63;;;4.28;;
22754;SDS011;11544;42.020;23.094;2024-03-07T08:10:31;6.93;;;3.92;;
22754;SDS011;11544;42.020;23.094;2024-03-07T08:13:00;9.65;;;5.13;;
22754;SDS011;11544;42.020;23.094;2024-03-07T08:15:29;9.57;;;5.93;;
22754;SDS011;11544;42.020;23.094;2024-03-07T08:17:57;9.55;;;5.80;;
22754;SDS011;11544;42.020;23.094;2024-03-07T08:20:26;7.10;;;4.88;;
22754;SDS011;11544;42.020;23.094;2024-03-07T08:22:54;12.02;;;5.05;;
22754;SDS011;11544;42.020;23.094;2024-03-07T08:25:23;6.15;;;4.68;;
22754;SDS011;11544;42.020;23.094;2024-03-07T08:27:52;5.75;;;5.15;;
22754;SDS011;11544;42.020;23.094;2024-03-07T08:30:20;12.85;;;7.70;;
22754;SDS011;11544;42.020;23.094;2024-03-07T08:32:53;12.48;;;8.18;;
22754;SDS011;11544;42.020;23.094;2024-03-07T08:35:24;9.65;;;6.05;;
22754;SDS011;11544;42.020;23.094;2024-03-07T08:37:52;11.68;;;7.90;;
22754;SDS011;11544;42.020;23.094;2024-03-07T08:40:22;11.73;;;7.88;;
22754;SDS011;11544;42.020;23.094;2024-03-07T08:43:01;8.77;;;4.30;;
22754;SDS011;11544;42.020;23.094;2024-03-07T08:45:34;6.63;;;4.30;;
22754;SDS011;11544;42.020;23.094;2024-03-07T08:48:02;6.22;;;4.05;;
22754;SDS011;11544;42.020;23.094;2024-03-07T08:50:36;5.82;;;3.40;;
22754;SDS011;11544;42.020;23.094;2024-03-07T08:53:05;5.60;;;3.60;;
22754;SDS011;11544;42.020;23.094;2024-03-07T08:55:32;6.85;;;3.75;;
22754;SDS011;11544;42.020;23.094;2024-03-07T08:58:02;5.50;;;3.80;;
22754;SDS011;11544;42.020;23.094;2024-03-07T09:00:29;7.63;;;3.83;;
22754;SDS011;11544;42.020;23.094;2024-03-07T09:02:57;6.55;;;3.70;;
22754;SDS011;11544;42.020;23.094;2024-03-07T09:05:27;4.60;;;3.13;;
22754;SDS011;11544;42.020;23.094;2024-03-07T09:07:55;7.35;;;3.63;;
22754;SDS011;11544;42.020;23.094;2024-03-07T09:10:22;5.03;;;3.53;;
22754;SDS011;11544;42.020;23.094;2024-03-07T09:12:52;5.78;;;3.70;;
22754;SDS011;11544;42.020;23.094;2024-03-07T09:15:21;4.68;;;3.15;;
22754;SDS011;11544;42.020;23.094;2024-03-07T09:17:50;6.15;;;3.28;;
22754;SDS011;11544;42.020;23.094;2024-03-07T09:20:19;3.10;;;2.42;;
22754;SDS011;11544;42.020;23.094;2024-03-07T09:22:46;4.47;;;2.60;;
22754;SDS011;11544;42.020;23.094;2024-03-07T09:25:14;2.38;;;1.50;;
22754;SDS011;11544;42.020;23.094;2024-03-07T09:27:43;2.67;;;1.80;;
22754;SDS011;11544;42.020;23.094;2024-03-07T09:30:10;1.67;;;1.55;;
22754;SDS011;11544;42.020;23.094;2024-03-07T09:32:50;17.50;;;7.78;;
22754;SDS011;11544;42.020;23.094;2024-03-07T09:35:18;5.35;;;3.60;;
22754;SDS011;11544;42.020;23.094;2024-03-07T09:37:45;3.13;;;2.45;;
22754;SDS011;11544;42.020;23.094;2024-03-07T09:40:12;2.97;;;2.33;;
22754;SDS011;11544;42.020;23.094;2024-03-07T09:42:47;3.70;;;2.47;;
22754;SDS011;11544;42.020;23.094;2024-03-07T09:45:17;2.25;;;1.48;;
22754;SDS011;11544;42.020;23.094;2024-03-07T09:47:48;2.75;;;1.52;;
22754;SDS011;11544;42.020;23.094;2024-03-07T09:50:20;2.03;;;1.52;;
22754;SDS011;11544;42.020;23.094;2024-03-07T09:52:50;2.88;;;1.60;;
22754;SDS011;11544;42.020;23.094;2024-03-07T09:55:21;1.50;;;1.40;;
22754;SDS011;11544;42.020;23.094;2024-03-07T09:57:52;1.98;;;1.35;;
22754;SDS011;11544;42.020;23.094;2024-03-07T10:00:23;2.17;;;1.48;;
22754;SDS011;11544;42.020;23.094;2024-03-07T10:02:57;2.53;;;1.55;;
22754;SDS011;11544;42.020;23.094;2024-03-07T10:05:26;1.50;;;0.98;;
22754;SDS011;11544;42.020;23.094;2024-03-07T10:07:54;3.97;;;2.20;;
22754;SDS011;11544;42.020;23.094;2024-03-07T10:10:22;1.95;;;1.38;;
22754;SDS011;11544;42.020;23.094;2024-03-07T10:12:50;1.98;;;1.60;;
22754;SDS011;11544;42.020;23.094;2024-03-07T10:15:20;1.92;;;1.48;;
22754;SDS011;11544;42.020;23.094;2024-03-07T10:17:48;1.70;;;1.40;;
22754;SDS011;11544;42.020;23.094;2024-03-07T10:20:18;2.35;;;0.70;;
22754;SDS011;11544;42.020;23.094;2024-03-07T10:22:47;2.45;;;1.10;;
22754;SDS011;11544;42.020;23.094;2024-03-07T10:25:19;3.38;;;1.42;;
22754;SDS011;11544;42.020;23.094;2024-03-07T10:27:52;5.95;;;1.35;;
22754;SDS011;11544;42.020;23.094;2024-03-07T10:30:19;1.20;;;0.80;;
22754;SDS011;11544;42.020;23.094;2024-03-07T10:32:53;2.55;;;1.30;;
22754;SDS011;11544;42.020;23.094;2024-03-07T10:35:23;6.55;;;0.98;;
22754;SDS011;11544;42.020;23.094;2024-03-07T10:37:54;3.80;;;0.70;;
22754;SDS011;11544;42.020;23.094;2024-03-07T10:40:22;2.00;;;0.80;;
22754;SDS011;11544;42.020;23.094;2024-03-07T10:42:52;4.97;;;0.95;;
22754;SDS011;11544;42.020;23.094;2024-03-07T10:45:23;1.52;;;0.75;;
22754;SDS011;11544;42.020;23.094;2024-03-07T10:47:53;3.88;;;1.25;;
22754;SDS011;11544;42.020;23.094;2024-03-07T10:53:24;2.47;;;1.30;;
22754;SDS011;11544;42.020;23.094;2024-03-07T10:56:06;3.13;;;2.15;;
22754;SDS011;11544;42.020;23.094;2024-03-07T11:01:35;6.43;;;1.73;;
22754;SDS011;11544;42.020;23.094;2024-03-07T11:04:05;5.72;;;2.10;;
22754;SDS011;11544;42.020;23.094;2024-03-07T11:06:34;6.65;;;3.53;;
22754;SDS011;11544;42.020;23.094;2024-03-07T11:09:01;5.72;;;2.85;;
22754;SDS011;11544;42.020;23.094;2024-03-07T11:11:39;7.38;;;2.20;;
22754;SDS011;11544;42.020;23.094;2024-03-07T11:14:10;3.75;;;2.28;;
22754;SDS011;11544;42.020;23.094;2024-03-07T11:16:39;5.50;;;2.25;;
22754;SDS011;11544;42.020;23.094;2024-03-07T11:22:04;5.90;;;2.85;;
22754;SDS011;11544;42.020;23.094;2024-03-07T11:24:44;4.65;;;2.38;;
22754;SDS011;11544;42.020;23.094;2024-03-07T11:27:12;2.78;;;2.20;;
22754;SDS011;11544;42.020;23.094;2024-03-07T11:29:49;11.88;;;3.03;;
22754;SDS011;11544;42.020;23.094;2024-03-07T11:32:21;8.38;;;2.78;;
22754;SDS011;11544;42.020;23.094;2024-03-07T11:34:50;4.72;;;1.80;;
22754;SDS011;11544;42.020;23.094;2024-03-07T11:37:36;6.25;;;2.50;;
22754;SDS011;11544;42.020;23.094;2024-03-07T11:40:11;6.25;;;3.10;;
22754;SDS011;11544;42.020;23.094;2024-03-07T11:42:48;3.40;;;2.00;;
22754;SDS011;11544;42.020;23.094;2024-03-07T11:45:16;5.13;;;2.35;;
22754;SDS011;11544;42.020;23.094;2024-03-07T11:47:57;3.40;;;1.20;;
22754;SDS011;11544;42.020;23.094;2024-03-07T11:50:46;5.10;;;1.35;;
22754;SDS011;11544;42.020;23.094;2024-03-07T11:53:13;2.58;;;1.23;;
22754;SDS011;11544;42.020;23.094;2024-03-07T11:55:41;5.20;;;2.22;;
22754;SDS011;11544;42.020;23.094;2024-03-07T11:58:15;4.13;;;1.85;;
22754;SDS011;11544;42.020;23.094;2024-03-07T12:00:49;4.45;;;1.73;;
22754;SDS011;11544;42.020;23.094;2024-03-07T12:03:19;3.47;;;1.42;;
22754;SDS011;11544;42.020;23.094;2024-03-07T12:05:52;7.35;;;1.77;;
22754;SDS011;11544;42.020;23.094;2024-03-07T12:08:19;11.93;;;1.83;;
22754;SDS011;11544;42.020;23.094;2024-03-07T12:10:51;5.15;;;1.80;;
22754;SDS011;11544;42.020;23.094;2024-03-07T12:13:24;3.85;;;1.27;;
22754;SDS011;11544;42.020;23.094;2024-03-07T12:15:53;2.85;;;0.60;;
22754;SDS011;11544;42.020;23.094;2024-03-07T12:18:22;0.40;;;0.40;;
22754;SDS011;11544;42.020;23.094;2024-03-07T12:20:51;1.73;;;0.60;;
22754;SDS011;11544;42.020;23.094;2024-03-07T12:23:22;4.65;;;0.93;;
22754;SDS011;11544;42.020;23.094;2024-03-07T12:26:00;4.25;;;0.50;;
22754;SDS011;11544;42.020;23.094;2024-03-07T12:28:28;1.60;;;0.90;;
22754;SDS011;11544;42.020;23.094;2024-03-07T12:31:00;3.53;;;1.02;;
22754;SDS011;11544;42.020;23.094;2024-03-07T12:33:29;5.53;;;1.33;;
22754;SDS011;11544;42.020;23.094;2024-03-07T12:36:01;1.00;;;0.90;;
22754;SDS011;11544;42.020;23.094;2024-03-07T12:38:37;1.48;;;0.98;;
22754;SDS011;11544;42.020;23.094;2024-03-07T12:41:08;2.42;;;1.10;;
22754;SDS011;11544;42.020;23.094;2024-03-07T12:43:43;2.92;;;1.58;;
22754;SDS011;11544;42.020;23.094;2024-03-07T12:46:12;1.42;;;0.90;;
22754;SDS011;11544;42.020;23.094;2024-03-07T12:48:41;6.78;;;1.92;;
22754;SDS011;11544;42.020;23.094;2024-03-07T12:51:13;1.88;;;1.38;;
22754;SDS011;11544;42.020;23.094;2024-03-07T12:53:46;2.10;;;0.80;;
22754;SDS011;11544;42.020;23.094;2024-03-07T12:56:14;2.80;;;0.65;;
22754;SDS011;11544;42.020;23.094;2024-03-07T12:58:46;1.70;;;0.70;;
22754;SDS011;11544;42.020;23.094;2024-03-07T13:01:14;3.42;;;1.65;;
22754;SDS011;11544;42.020;23.094;2024-03-07T13:03:41;4.13;;;1.00;;
22754;SDS011;11544;42.020;23.094;2024-03-07T13:06:11;4.32;;;1.00;;
22754;SDS011;11544;42.020;23.094;2024-03-07T13:08:39;3.88;;;1.00;;
22754;SDS011;11544;42.020;23.094;2024-03-07T13:11:07;2.00;;;0.70;;
22754;SDS011;11544;42.020;23.094;2024-03-07T13:13:37;8.52;;;2.20;;
22754;SDS011;11544;42.020;23.094;2024-03-07T13:16:04;4.70;;;0.80;;
22754;SDS011;11544;42.020;23.094;2024-03-07T13:18:31;2.42;;;1.00;;
22754;SDS011;11544;42.020;23.094;2024-03-07T13:21:01;5.95;;;1.58;;
22754;SDS011;11544;42.020;23.094;2024-03-07T13:23:33;3.00;;;1.58;;
22754;SDS011;11544;42.020;23.094;2024-03-07T13:26:01;3.33;;;1.45;;
22754;SDS011;11544;42.020;23.094;2024-03-07T13:28:37;3.38;;;1.17;;
22754;SDS011;11544;42.020;23.094;2024-03-07T13:31:04;4.20;;;1.30;;
22754;SDS011;11544;42.020;23.094;2024-03-07T13:33:31;5.88;;;1.40;;
22754;SDS011;11544;42.020;23.094;2024-03-07T13:35:59;3.05;;;1.50;;
22754;SDS011;11544;42.020;23.094;2024-03-07T13:38:27;3.72;;;1.35;;
22754;SDS011;11544;42.020;23.094;2024-03-07T13:40:54;1.45;;;1.13;;
22754;SDS011;11544;42.020;23.094;2024-03-07T13:43:21;4.15;;;1.30;;
22754;SDS011;11544;42.020;23.094;2024-03-07T13:45:48;4.35;;;1.13;;
22754;SDS011;11544;42.020;23.094;2024-03-07T13:48:15;3.60;;;1.20;;
22754;SDS011;11544;42.020;23.094;2024-03-07T13:50:47;4.40;;;1.85;;
22754;SDS011;11544;42.020;23.094;2024-03-07T13:53:28;1.27;;;0.45;;
22754;SDS011;11544;42.020;23.094;2024-03-07T14:05:34;5.15;;;0.95;;
22754;SDS011;11544;42.020;23.094;2024-03-07T14:31:53;4.15;;;1.17;;
22754;SDS011;11544;42.020;23.094;2024-03-07T14:37:22;5.35;;;1.40;;
22754;SDS011;11544;42.020;23.094;2024-03-07T14:39:51;7.93;;;1.83;;
22754;SDS011;11544;42.020;23.094;2024-03-07T14:42:28;4.95;;;0.98;;
22754;SDS011;11544;42.020;23.094;2024-03-07T14:44:55;3.95;;;0.68;;
22754;SDS011;11544;42.020;23.094;2024-03-07T14:47:22;1.83;;;0.70;;
22754;SDS011;11544;42.020;23.094;2024-03-07T14:49:49;2.15;;;1.02;;
22754;SDS011;11544;42.020;23.094;2024-03-07T14:52:16;3.35;;;0.70;;
22754;SDS011;11544;42.020;23.094;2024-03-07T14:54:43;1.85;;;1.02;;
22754;SDS011;11544;42.020;23.094;2024-03-07T14:57:10;1.65;;;0.82;;
22754;SDS011;11544;42.020;23.094;2024-03-07T14:59:38;5.07;;;1.15;;
22754;SDS011;11544;42.020;23.094;2024-03-07T15:02:07;4.22;;;0.93;;
22754;SDS011;11544;42.020;23.094;2024-03-07T15:04:37;1.52;;;0.93;;
22754;SDS011;11544;42.020;23.094;2024-03-07T15:07:06;3.05;;;1.50;;
22754;SDS011;11544;42.020;23.094;2024-03-07T15:09:37;5.63;;;1.75;;
22754;SDS011;11544;42.020;23.094;2024-03-07T15:12:05;7.45;;;1.15;;
22754;SDS011;11544;42.020;23.094;2024-03-07T15:14:33;2.22;;;1.20;;
22754;SDS011;11544;42.020;23.094;2024-03-07T15:17:05;4.63;;;1.88;;
22754;SDS011;11544;42.020;23.094;2024-03-07T15:19:33;3.88;;;1.55;;
22754;SDS011;11544;42.020;23.094;2024-03-07T15:22:01;3.50;;;1.33;;
22754;SDS011;11544;42.020;23.094;2024-03-07T15:24:30;4.30;;;1.48;;